Time;durP1;ratioP1;P1;durP2;ratioP2;P2;SDS_P1;SDS_P2;PMS_P1;PMS_P2;Temp;Humidity;BMP_temperature;BMP_pressure;BME280_temperature;BME280_humidity;BME280_pressure;Samples;Min_cycle;Max_cycle;Signal;HPM_P1;HPM_P2
2022/05/16 00:01:53;;;;;;;0.73;0.40;;;18.40;81.80;;;;;;4985378;28;20042;-89
2022/05/16 00:05:04;;;;;;;;;;;;;;;;;;;;;
2022/05/16 00:07:53;;;;;;;1.95;0.73;;;18.10;82.10;;;;;;5002016;23;20592;-89
2022/05/16 00:10:56;;;;;;;1.17;0.45;;;18.10;82.30;;;;;;4998192;28;20044;-89
2022/05/16 00:14:00;;;;;;;;;;;;;;;;;;;;;
2022/05/16 00:17:07;;;;;;;1.67;0.40;;;18.10;80.50;;;;;;5013870;28;20026;-88
2022/05/16 00:23:10;;;;;;;1.00;0.40;;;18.00;80.40;;;;;;4990821;28;20222;-88
2022/05/16 00:25:57;;;;;;;1.20;0.45;;;18.00;81.90;;;;;;4965284;28;20535;-88
2022/05/16 00:29:20;;;;;;;1.48;0.40;;;18.00;80.10;;;;;;4974934;28;20062;-89
2022/05/16 00:32:50;;;;;;;;;;;;;;;;;;;;;
2022/05/16 00:38:59;;;;;;;1.08;0.40;;;18.00;81.80;;;;;;5018503;23;20058;-89
2022/05/16 00:42:17;;;;;;;0.80;0.40;;;17.90;82.10;;;;;;4987464;28;20356;-88
2022/05/16 00:45:19;;;;;;;1.65;0.80;;;18.10;82.30;;;;;;4990232;28;20030;-88
2022/05/16 00:48:27;;;;;;;0.85;0.32;;;17.90;82.20;;;;;;4987083;28;20041;-88
2022/05/16 00:51:16;;;;;;;1.83;0.55;;;17.90;80.80;;;;;;4922731;29;20040;-90
2022/05/16 00:54:15;;;;;;;5.50;0.50;;;17.80;82.80;;;;;;4936278;28;20655;-88
2022/05/16 00:57:32;;;;;;;1.52;0.50;;;17.90;83.00;;;;;;4933363;28;20046;-89
2022/05/16 01:00:50;;;;;;;;;;;;;;;;;;;;;
2022/05/16 01:06:42;;;;;;;1.15;0.50;;;17.60;83.90;;;;;;4973417;28;20044;-89
2022/05/16 01:09:18;;;;;;;0.98;0.50;;;17.60;83.20;;;;;;5007010;28;20022;-89
2022/05/16 01:12:22;;;;;;;1.30;0.60;;;17.60;84.50;;;;;;4991734;28;20034;-88
2022/05/16 01:15:36;;;;;;;;;;;;;;;;;;;;;
2022/05/16 01:21:30;;;;;;;1.83;0.57;;;17.40;84.30;;;;;;4991683;28;20058;-88
2022/05/16 01:24:45;;;;;;;1.23;0.30;;;17.50;84.90;;;;;;4984111;28;20025;-89
2022/05/16 01:30:46;;;;;;;1.70;0.50;;;17.50;86.10;;;;;;4990467;28;20035;-90
2022/05/16 01:33:45;;;;;;;1.00;0.63;;;17.40;87.00;;;;;;5004599;28;20030;-89
2022/05/16 01:36:56;;;;;;;0.85;0.47;;;17.30;86.90;;;;;;4966877;28;20038;-89
2022/05/16 01:39:21;;;;;;;1.20;0.30;;;17.30;87.00;;;;;;5016822;23;20080;-89
2022/05/16 01:41:47;;;;;;;1.67;0.60;;;17.20;87.10;;;;;;4981373;28;20652;-89
2022/05/16 01:44:12;;;;;;;2.03;0.63;;;17.30;86.90;;;;;;4983505;28;20034;-89
2022/05/16 01:46:40;;;;;;;2.33;0.70;;;17.20;86.90;;;;;;4992122;28;20069;-89
2022/05/16 01:49:08;;;;;;;1.55;0.45;;;17.20;86.70;;;;;;4983772;28;20023;-88
2022/05/16 01:51:35;;;;;;;4.57;0.52;;;17.10;87.40;;;;;;4984431;28;20046;-89
2022/05/16 01:54:03;;;;;;;1.17;0.50;;;17.10;87.90;;;;;;4977427;28;20560;-89
2022/05/16 01:56:31;;;;;;;2.22;0.63;;;16.90;87.00;;;;;;4985632;28;20125;-89
2022/05/16 01:58:58;;;;;;;1.75;0.63;;;16.80;86.50;;;;;;4980037;28;20039;-89
2022/05/16 02:01:24;;;;;;;2.03;0.80;;;17.00;86.80;;;;;;4982375;28;20473;-89
2022/05/16 02:03:50;;;;;;;1.27;0.60;;;16.90;87.70;;;;;;4991297;28;20022;-89
2022/05/16 02:06:16;;;;;;;1.45;0.60;;;16.90;88.20;;;;;;5001067;28;20041;-88
2022/05/16 02:08:43;;;;;;;1.85;0.77;;;16.60;88.90;;;;;;4979577;28;20030;-88
2022/05/16 02:11:10;;;;;;;2.42;0.68;;;16.50;89.10;;;;;;4989422;28;20022;-89
2022/05/16 02:13:38;;;;;;;1.98;0.50;;;16.60;89.70;;;;;;4989892;28;20034;-88
2022/05/16 02:16:04;;;;;;;1.30;0.65;;;16.50;90.20;;;;;;4988429;28;20022;-89
2022/05/16 02:18:29;;;;;;;1.75;0.93;;;16.60;90.50;;;;;;4985670;28;20085;-88
2022/05/16 02:24:38;;;;;;;3.50;0.65;;;16.50;90.10;;;;;;4988406;28;20030;-88
2022/05/16 02:26:26;;;;;;;2.20;0.93;;;16.50;90.30;;;;;;4975863;28;20565;-89
2022/05/16 02:28:51;;;;;;;1.98;0.47;;;16.60;90.40;;;;;;4986251;28;20034;-89
2022/05/16 02:31:19;;;;;;;4.38;0.70;;;16.80;90.70;;;;;;4978110;28;20023;-89
2022/05/16 02:33:46;;;;;;;1.88;0.70;;;16.50;90.70;;;;;;4988676;28;20030;-90
2022/05/16 02:36:12;;;;;;;1.33;0.70;;;16.50;90.10;;;;;;4993490;28;20034;-89
2022/05/16 02:38:38;;;;;;;1.23;0.50;;;16.60;90.10;;;;;;4978171;28;20033;-90
2022/05/16 02:41:04;;;;;;;2.95;0.90;;;16.60;90.20;;;;;;4987095;28;20113;-88
2022/05/16 02:43:29;;;;;;;1.10;0.40;;;16.60;90.20;;;;;;4985897;28;20117;-89
2022/05/16 02:45:55;;;;;;;1.92;0.57;;;16.70;90.20;;;;;;4989594;28;20057;-89
2022/05/16 02:48:21;;;;;;;1.00;0.30;;;16.80;90.60;;;;;;4991077;28;20053;-89
2022/05/16 02:50:47;;;;;;;2.92;0.80;;;16.60;90.80;;;;;;4992518;28;20035;-89
2022/05/16 02:53:12;;;;;;;1.40;0.60;;;16.70;90.70;;;;;;4991854;28;20586;-89
2022/05/16 02:55:38;;;;;;;1.92;0.80;;;16.90;90.80;;;;;;4987745;28;20116;-89
2022/05/16 02:58:07;;;;;;;1.40;0.60;;;16.60;90.60;;;;;;4993786;28;20038;-89
2022/05/16 03:00:35;;;;;;;1.45;0.47;;;16.60;90.70;;;;;;4978623;28;20034;-89
2022/05/16 03:03:00;;;;;;;1.58;0.65;;;16.70;90.60;;;;;;4994014;28;20038;-89
2022/05/16 03:05:26;;;;;;;2.15;0.50;;;16.90;90.70;;;;;;4989125;28;20371;-89
2022/05/16 03:07:51;;;;;;;1.50;0.65;;;16.90;90.70;;;;;;4992584;28;20038;-89
2022/05/16 03:10:18;;;;;;;2.70;0.70;;;16.80;90.80;;;;;;4992310;28;20121;-89
2022/05/16 03:12:45;;;;;;;1.23;0.52;;;16.80;90.70;;;;;;4987163;28;20031;-89
2022/05/16 03:15:12;;;;;;;0.90;0.50;;;16.80;90.70;;;;;;4984633;28;20026;-89
2022/05/16 03:17:38;;;;;;;1.15;0.60;;;16.90;90.60;;;;;;4987914;28;20045;-89
2022/05/16 03:20:07;;;;;;;1.73;0.70;;;16.90;90.50;;;;;;4989807;28;20026;-89
2022/05/16 03:22:33;;;;;;;1.50;0.63;;;17.00;90.50;;;;;;4986287;28;20019;-89
2022/05/16 03:24:59;;;;;;;1.33;0.60;;;17.00;90.60;;;;;;4990334;28;20029;-89
2022/05/16 03:27:25;;;;;;;0.98;0.45;;;17.00;90.50;;;;;;4979625;28;20471;-89
2022/05/16 03:29:51;;;;;;;0.88;0.40;;;17.00;90.80;;;;;;4983516;28;20050;-89
2022/05/16 03:32:18;;;;;;;1.73;0.40;;;17.00;90.80;;;;;;4984592;28;20124;-89
2022/05/16 03:34:43;;;;;;;0.88;0.38;;;17.00;90.80;;;;;;5003633;28;20121;-89
2022/05/16 03:37:09;;;;;;;0.80;0.50;;;17.20;91.10;;;;;;4991616;28;20121;-89
2022/05/16 03:42:19;;;;;;;0.90;0.40;;;17.00;91.20;;;;;;4986483;28;20037;-89
2022/05/16 03:44:45;;;;;;;1.77;0.68;;;17.00;91.40;;;;;;4984096;28;20117;-89
2022/05/16 03:47:10;;;;;;;1.25;0.60;;;16.90;91.60;;;;;;4992562;28;20133;-89
2022/05/16 03:49:36;;;;;;;2.15;0.95;;;17.00;91.70;;;;;;4985322;28;20081;-89
2022/05/16 03:52:02;;;;;;;1.45;0.52;;;16.90;91.70;;;;;;4982583;28;20461;-90
2022/05/16 03:54:28;;;;;;;1.83;0.80;;;17.00;92.00;;;;;;4978893;28;20128;-89
2022/05/16 03:56:54;;;;;;;1.38;0.50;;;17.20;92.20;;;;;;4985526;28;20399;-88
2022/05/16 03:59:20;;;;;;;1.63;0.50;;;17.00;91.70;;;;;;4980921;28;20027;-89
2022/05/16 04:01:45;;;;;;;1.05;0.50;;;17.00;92.00;;;;;;4985341;28;20022;-89
2022/05/16 04:04:11;;;;;;;2.30;0.68;;;17.00;91.90;;;;;;4983290;28;20028;-89
2022/05/16 04:06:37;;;;;;;2.25;0.75;;;17.00;91.90;;;;;;4977551;28;20093;-89
2022/05/16 04:09:04;;;;;;;0.95;0.55;;;17.00;91.90;;;;;;4984323;28;20347;-88
2022/05/16 04:11:30;;;;;;;1.38;0.50;;;17.00;91.80;;;;;;4976850;28;20057;-89
2022/05/16 04:13:56;;;;;;;1.15;0.55;;;17.00;91.90;;;;;;4990417;28;20042;-89
2022/05/16 04:16:23;;;;;;;1.98;0.55;;;17.10;92.00;;;;;;4993458;28;20030;-89
2022/05/16 04:18:48;;;;;;;1.52;0.68;;;17.10;91.90;;;;;;4978868;28;20098;-88
2022/05/16 04:21:14;;;;;;;2.60;0.68;;;17.10;92.10;;;;;;4975087;28;20220;-89
2022/05/16 04:23:40;;;;;;;2.50;0.75;;;17.20;92.30;;;;;;4985665;28;20049;-88
2022/05/16 04:26:06;;;;;;;2.35;0.70;;;17.20;92.30;;;;;;4987701;28;20026;-89
2022/05/16 04:28:32;;;;;;;2.50;0.70;;;17.40;92.60;;;;;;4988278;28;20406;-89
2022/05/16 04:30:58;;;;;;;1.20;0.50;;;17.20;92.40;;;;;;4975117;28;20026;-89
2022/05/16 04:33:24;;;;;;;1.45;0.57;;;17.30;92.80;;;;;;4983143;28;20034;-89
2022/05/16 04:35:50;;;;;;;1.20;0.70;;;17.30;93.80;;;;;;4987423;28;20037;-89
2022/05/16 04:38:15;;;;;;;1.42;0.68;;;17.30;95.00;;;;;;5001858;28;20067;-89
2022/05/16 04:43:25;;;;;;;2.97;0.70;;;17.20;95.00;;;;;;4984679;28;20021;-90
2022/05/16 04:45:51;;;;;;;1.65;0.60;;;17.30;96.10;;;;;;4984322;28;20030;-89
2022/05/16 04:48:17;;;;;;;1.52;0.60;;;17.20;97.20;;;;;;4989537;28;20046;-89
2022/05/16 04:50:44;;;;;;;1.38;0.55;;;17.20;97.30;;;;;;4985736;28;20077;-89
2022/05/16 04:53:10;;;;;;;1.92;0.80;;;17.10;97.90;;;;;;5002257;28;20026;-90
2022/05/16 04:55:37;;;;;;;1.90;0.70;;;17.20;98.70;;;;;;4988750;28;20019;-89
2022/05/16 04:58:05;;;;;;;2.65;0.77;;;17.10;99.00;;;;;;4990404;28;20388;-90
2022/05/16 05:00:30;;;;;;;2.00;0.80;;;17.10;99.40;;;;;;4987598;28;20027;-89
2022/05/16 05:02:59;;;;;;;1.20;0.63;;;17.10;99.20;;;;;;4983539;28;20041;-88
2022/05/16 05:05:24;;;;;;;2.20;0.85;;;17.20;98.80;;;;;;4986486;28;20019;-89
2022/05/16 05:07:54;;;;;;;1.52;0.60;;;17.20;99.50;;;;;;4984536;28;20113;-88
2022/05/16 05:17:16;;;;;;;2.30;0.80;;;17.40;99.90;;;;;;4982198;28;20064;-89
2022/05/16 09:40:01;;;;;;;;;;;;;;;;;;;;;
2022/05/16 09:43:52;;;;;;;2.00;1.15;;;25.10;96.20;;;;;;4950547;28;20054;-90
2022/05/16 09:46:31;;;;;;;3.63;1.30;;;25.10;95.20;;;;;;4898299;29;20306;-89
2022/05/16 09:49:10;;;;;;;2.10;0.95;;;25.60;95.80;;;;;;4930377;29;20058;-92
2022/05/16 09:52:14;;;;;;;2.75;1.08;;;25.60;94.80;;;;;;4925541;29;20028;-92
2022/05/16 09:55:03;;;;;;;3.05;1.27;;;25.30;94.00;;;;;;4923447;29;20067;-92
2022/05/16 09:57:43;;;;;;;2.97;1.20;;;25.10;93.70;;;;;;4936270;29;20048;-91
2022/05/16 10:00:33;;;;;;;4.10;1.40;;;24.90;93.30;;;;;;4933056;29;20032;-92
2022/05/16 10:03:38;;;;;;;3.53;1.38;;;24.90;92.80;;;;;;4934629;29;20035;-91
2022/05/16 10:06:25;;;;;;;2.10;0.93;;;24.80;93.50;;;;;;4930730;29;20024;-91
2022/05/16 10:08:51;;;;;;;1.85;1.02;;;24.80;93.40;;;;;;4916809;29;20023;-91
2022/05/16 10:11:47;;;;;;;2.78;0.85;;;24.90;94.00;;;;;;4932495;29;20111;-91
2022/05/16 10:14:40;;;;;;;;;;;;;;;;;;;;;
2022/05/16 10:17:24;;;;;;;2.40;1.05;;;25.70;92.30;;;;;;4930843;29;20722;-91
2022/05/16 10:20:23;;;;;;;3.60;1.30;;;26.00;91.70;;;;;;4931555;29;20035;-92
2022/05/16 10:23:15;;;;;;;3.60;1.10;;;26.00;91.40;;;;;;4930929;29;20488;-91
2022/05/16 10:26:06;;;;;;;;;;;;;;;;;;;;;
2022/05/16 10:28:46;;;;;;;1.98;0.95;;;26.10;90.30;;;;;;4935904;29;20287;-91
2022/05/16 10:37:47;;;;;;;4.88;1.15;;;26.40;90.90;;;;;;4939536;23;20503;-91
2022/05/16 10:40:41;;;;;;;3.08;1.20;;;26.40;90.70;;;;;;4931488;29;20038;-92
2022/05/16 10:43:39;;;;;;;3.70;1.40;;;26.40;90.80;;;;;;4932248;29;20043;-91
2022/05/16 10:46:20;;;;;;;2.97;1.20;;;26.30;90.80;;;;;;4932799;29;20032;-92
2022/05/16 10:49:33;;;;;;;2.60;1.27;;;26.30;91.10;;;;;;4927586;29;20071;-91
2022/05/16 10:53:12;;;;;;;2.35;1.05;;;25.90;91.30;;;;;;4931572;29;20063;-91
2022/05/16 10:56:04;;;;;;;6.80;0.95;;;25.70;91.50;;;;;;4886808;29;20108;-91
2022/05/16 11:05:49;;;;;;;2.30;0.90;;;24.50;91.90;;;;;;4902949;29;20056;-92
2022/05/16 11:29:16;;;;;;;2.40;0.80;;;23.10;93.70;;;;;;4933476;29;20059;-90
2022/05/16 11:32:04;;;;;;;1.90;0.52;;;22.90;94.10;;;;;;4936676;28;20032;-88
2022/05/16 11:38:57;;;;;;;1.77;0.52;;;22.40;93.90;;;;;;4925502;29;20489;-88
2022/05/16 11:45:06;;;;;;;;;;;22.00;94.40;;;;;;4930231;29;20087;-89
2022/05/16 11:48:15;;;;;;;;;;;;;;;;;;;;;
2022/05/16 11:51:45;;;;;;;0.80;0.30;;;21.60;93.80;;;;;;4933496;29;20028;-88
2022/05/16 11:54:54;;;;;;;1.27;0.40;;;21.50;93.60;;;;;;4947649;28;20046;-90
2022/05/16 12:01:19;;;;;;;2.10;0.40;;;20.90;94.00;;;;;;4935444;29;20060;-89
2022/05/16 12:04:35;;;;;;;1.33;0.40;;;20.90;93.90;;;;;;4933253;29;20665;-89
2022/05/16 12:07:32;;;;;;;1.42;0.50;;;20.70;93.80;;;;;;4948402;28;20043;-90
2022/05/16 12:10:15;;;;;;;2.00;0.40;;;20.50;95.70;;;;;;4902874;29;20043;-90
2022/05/16 12:13:16;;;;;;;1.85;0.45;;;20.30;97.50;;;;;;4932140;29;20032;-90
2022/05/16 12:15:57;;;;;;;1.85;0.32;;;20.00;99.20;;;;;;4940733;28;20030;-90
2022/05/16 12:25:27;;;;;;;1.20;0.40;;;19.40;99.90;;;;;;4942252;29;20027;-92
2022/05/16 12:28:38;;;;;;;1.65;0.60;;;19.20;99.90;;;;;;4951700;28;20040;-92
2022/05/16 12:31:27;;;;;;;1.92;0.45;;;19.20;99.90;;;;;;4933491;29;20051;-92
2022/05/16 12:37:35;;;;;;;;;;;19.00;99.90;;;;;;4933150;29;20034;-94
2022/05/16 12:40:57;;;;;;;;;;;;;;;;;;;;;
2022/05/16 12:43:57;;;;;;;0.80;0.35;;;19.00;99.90;;;;;;4936874;29;20094;-92
2022/05/16 12:47:00;;;;;;;1.20;0.32;;;18.90;99.90;;;;;;4948302;28;20066;-92
2022/05/16 12:50:08;;;;;;;2.72;0.50;;;19.00;99.90;;;;;;4903262;29;20042;-92
2022/05/16 12:53:24;;;;;;;1.15;0.43;;;18.90;99.90;;;;;;4952270;28;20051;-92
2022/05/16 12:56:42;;;;;;;1.38;0.55;;;19.00;99.90;;;;;;4934792;29;20118;-92
2022/05/16 13:03:09;;;;;;;2.13;0.35;;;19.50;99.90;;;;;;4933247;29;20030;-93
2022/05/16 15:22:30;;;;;;;1.33;0.47;;;26.90;94.10;;;;;;959557;23;21692;-95
2022/05/16 16:17:05;;;;;;;2.20;0.85;;;23.90;96.00;;;;;;4925221;29;20055;-88
2022/05/16 16:20:16;;;;;;;1.77;0.50;;;23.60;96.90;;;;;;4926608;29;20063;-87
2022/05/16 16:36:16;;;;;;;3.50;0.82;;;22.30;96.80;;;;;;4854016;29;20021;-88
2022/05/16 16:42:36;;;;;;;;;;;;;;;;;;;;;
2022/05/16 16:45:43;;;;;;;3.30;0.68;;;22.20;97.70;;;;;;4908558;29;20038;-88
2022/05/16 16:49:07;;;;;;;0.88;0.50;;;22.20;97.30;;;;;;4943744;29;20059;-89
2022/05/16 17:05:14;;;;;;;1.15;0.30;;;21.80;97.90;;;;;;4884400;29;20112;-86
2022/05/16 17:08:00;;;;;;;4.75;0.40;;;21.70;97.60;;;;;;4906924;29;20040;-88
2022/05/16 17:11:02;;;;;;;0.93;0.30;;;21.70;97.90;;;;;;4923855;29;20035;-85
2022/05/16 17:14:32;;;;;;;1.27;0.30;;;21.60;98.00;;;;;;4923268;29;20043;-85
2022/05/16 17:20:56;;;;;;;0.90;0.30;;;21.40;98.00;;;;;;4925614;29;20043;-88
2022/05/16 17:30:48;;;;;;;1.05;0.30;;;21.00;98.60;;;;;;4887269;29;20081;-88
2022/05/16 17:40:34;;;;;;;;;;;;;;;;;;;;;
2022/05/16 17:44:03;;;;;;;;;;;;;;;;;;;;;
2022/05/16 17:51:01;;;;;;;1.73;0.40;;;20.50;99.10;;;;;;4923568;29;20035;-89
2022/05/16 17:57:20;;;;;;;1.42;0.60;;;20.50;99.20;;;;;;4925866;29;20058;-87
2022/05/16 18:08:13;;;;;;;1.38;0.25;;;20.40;98.90;;;;;;4783931;29;20136;-87
2022/05/16 18:10:16;;;;;;;1.00;0.40;;;20.30;98.60;;;;;;4779945;29;20043;-87
2022/05/16 18:17:03;;;;;;;0.95;0.20;;;20.20;98.30;;;;;;4830770;29;20121;-88
2022/05/16 18:24:07;;;;;;;;;;;;;;;;;;;;;
2022/05/16 18:27:27;;;;;;;1.42;0.50;;;20.20;98.70;;;;;;4812511;29;20708;-88
2022/05/16 18:52:01;;;;;;;0.93;0.30;;;19.50;98.90;;;;;;4856247;29;20631;-88
2022/05/16 22:04:34;;;;;;;2.08;0.63;;;16.80;99.90;;;;;;4942811;29;20114;-86
2022/05/16 22:08:16;;;;;;;;;;;;;;;;;;;;;
2022/05/16 22:15:38;;;;;;;1.73;0.60;;;16.70;99.90;;;;;;4838768;29;20034;-86
2022/05/16 22:18:02;;;;;;;;;;;;;;;;;;;;;
2022/05/16 22:20:57;;;;;;;2.95;1.05;;;16.80;99.90;;;;;;4927652;29;20036;-86
2022/05/16 22:23:42;;;;;;;1.70;0.65;;;16.70;99.90;;;;;;4946208;28;20052;-85
2022/05/16 22:27:26;;;;;;;1.88;0.70;;;16.60;99.90;;;;;;4944206;28;20507;-87
2022/05/16 22:33:44;;;;;;;1.80;0.80;;;16.50;99.90;;;;;;4929026;29;20044;-87
2022/05/16 22:40:05;;;;;;;1.65;0.68;;;16.40;99.90;;;;;;4942015;28;20032;-86
2022/05/16 22:46:37;;;;;;;;;;;;;;;;;;;;;
2022/05/16 22:56:46;;;;;;;;;;;;;;;;;;;;;
2022/05/16 23:09:22;;;;;;;3.42;0.95;;;15.90;99.90;;;;;;4840313;29;20037;-87
2022/05/16 23:20:26;;;;;;;;;;;;;;;;;;;;;
2022/05/16 23:23:24;;;;;;;2.40;0.80;;;15.90;99.90;;;;;;4843807;29;20041;-87
